AGGHNVVV

Guest
Details From AGGH - HONIARA INTL
To NVVV - Bauerfield
Flight Number -
Tags generated
Created
Modified
Stats Distance 692 nm / 1,282 km
Max Altitude 35,000 ft / 10,668 m
Waypoints 5
Social Downloads 0
Likes 0
Share VATSIM

Download

Looking for another format? Having issues loading an existing format? Contact us
Advertisement - Login to hide

Notes

Basic altitude profile: - Ascent Rate: 1000ft/min - Ascent Speed: 250kts - Cruise Altitude: 40000ft - Cruise Speed: 500kts - Descent Rate: 2000ft/min - Descent Speed: 250kts Options: - Use NATs: yes - Use PACOTS: yes - Use low airways: yes - Use high airways: yes

Route

AGGH ILEWA B598 VLI NVVV

ID Type Via Altitude Latitude Longitude Leg Dist Tot Dist Heading (true) Name
O AGGH APT - 0 ft / 0 m -9.42826˚ 160.05453˚ - 0 nm - HONIARA INTL
ILEWA FIX - 21,200 ft / 6,462 m -10.17000˚ 160.71833˚ 59 nm 59 nm 139° / 139° -
NIPER FIX B598 (AWY-HI) 35,000 ft / 10,668 m -13.45833˚ 163.95500˚ 274 nm 333 nm 136° / 136° -
VLI VOR B598 (AWY-LO) 19,000 ft / 5,791 m -17.66222˚ 168.24389˚ 353 nm 687 nm 136° / 135° BAUERFIELD VOR-DME
O NVVV APT - 0 ft / 0 m -17.69818˚ 168.31754˚ 4 nm 692 nm 117° / 117° Bauerfield

Altitude Profile

Advertisement - Login to hide

Weather


0- 5 10 15 20 25 30 35+ Temperature / ° C

Clouds and Precipitation
Forecast for 2017-12-18 18:00 UTC. Updated an hour ago

Ground ~20,000 ft ~40,000 ft Winds

AGGH

Details ICAO AGGH (HIR)
Name HONIARA INTL
Region Solomon Islands
Timezone Pacific/Guadalcanal (UTC+11.0)
Stats Elevation 28 ft / 9 m (AMSL)
Location -9.428258° 160.054534°
Runways 1
Magnetic Variation 8.675° E

METAR

AGGH 181600Z 18003KT 9999 -RA FEW014 BKN026 OVC080 24/24 Q1006

Decode

TAF

TAF AGGH 181110Z 1812/1912 29010KT 9999 -SHRA SCT015 BKN100 PROB40 INTER 1812/1819 5000 TSSH SCT014 FEW015CB BKN026 T 25 24 24 26 Q 1008 1006 1005 1007

Decode

Departure Runways

ID Width Length Bearing (true) Bearing (mag) Surface Threshold Offset Overrun Length
06 148 ft / 45 m 7,232 ft / 2,204 m 67.90° 59.22° Asphalt 0 ft / 0 m 184 ft / 56 m
24 148 ft / 45 m 7,232 ft / 2,204 m 247.90° 239.22° Asphalt 0 ft / 0 m 171 ft / 52 m

NVVV

Details ICAO NVVV (VLI)
Name Bauerfield
Region Vanuatu
Timezone Pacific/Efate (UTC+11.0)
Stats Elevation 70 ft / 21 m (AMSL)
Location -17.698183° 168.317539°
Runways 1
Magnetic Variation 11.547° E

METAR

Not found

TAF

TAF NVVV 180430Z 1806/1906 12012KT 9999 SCT020

Decode

Destination Runways

ID Width Length Bearing (true) Bearing (mag) Surface Threshold Offset Overrun Length
11 148 ft / 45 m 8,531 ft / 2,600 m 118.01° 106.46° Asphalt 0 ft / 0 m 197 ft / 60 m
29 148 ft / 45 m 8,531 ft / 2,600 m 298.01° 286.46° Asphalt 0 ft / 0 m 197 ft / 60 m

Approach Navaids

Runway Type Ident Frequency Range Bearing (true) Bearing (mag) Slope Elevation
11 Localiser IBF 110.70 MHz 18 nm / 33 km 117.54° 106.00° - 10 ft / 3 m (AMSL)
11 DME IBF 110.70 MHz 18 nm / 33 km - - - 13 ft / 4 m (AMSL)

Popular Alternatives